SBPA/POA METAR and TAF weather

Enter ICAO airport designator
Station Type Date Time Source
SBPA METAR 2020/11/27 03:00 UTC NOAA

SBPA 270300Z 12007KT 090V160 9000 VCSH BKN015 OVC040 22/22 Q1017


Station Type Date Time Source
SBPA Decoded METAR 2020/11/27 03:00 UTC NOAA

Porto Alegre Aero-Porto , Brazil (SBPA) 30-00S 051-11W 3M
Nov 26, 2020 - 10:00 PM EST / 2020.11.27 0300 UTC
Wind: from the ESE (120 degrees) at 8 MPH (7 KT) (direction variable):0
Visibility: 5 mile(s):0
Sky conditions: overcast
Weather: showers in the vicinity
Temperature: 71 F (22 C)
Dew Point: 71 F (22 C)
Relative Humidity: 100%
Pressure (altimeter): 30.03 in. Hg (1017 hPa)
ob: SBPA 270300Z 12007KT 090V160 9000 VCSH BKN015 OVC040 22/22 Q1017
cycle: 3

Station Type Date Time Source
SBPA TAF 2020/11/27 00:00 UTC NOAA

TAF SBPA 262100Z 2700/2724 26008KT 9999 FEW025 TN20/2708Z TX27/2716Z
BECMG 2714/2716 14007KT SCT022 SCT030
RMK PDG

Example: see airport list